createdAt,value
2018-10-07T00:01:44.473Z,94.90
2018-10-07T00:04:13.806Z,95.00
2018-10-07T00:06:43.066Z,95.30
2018-10-07T00:09:12.384Z,95.50
2018-10-07T00:11:41.723Z,95.40
2018-10-07T00:14:10.968Z,95.70
2018-10-07T00:16:40.268Z,95.30
2018-10-07T00:19:09.538Z,95.20
2018-10-07T00:21:38.876Z,94.90
2018-10-07T00:24:08.145Z,95.00
2018-10-07T00:26:37.535Z,95.10
2018-10-07T00:29:06.878Z,95.20
2018-10-07T00:31:40.225Z,95.20
2018-10-07T00:34:09.570Z,95.40
2018-10-07T00:36:38.892Z,95.90
2018-10-07T00:39:10.322Z,96.00
2018-10-07T00:41:39.772Z,95.90
2018-10-07T00:44:09.037Z,96.00
2018-10-07T00:46:38.285Z,95.90
2018-10-07T00:49:07.524Z,96.00
2018-10-07T00:51:36.792Z,95.60
2018-10-07T00:54:06.041Z,95.30
2018-10-07T00:56:35.367Z,95.30
2018-10-07T00:59:04.632Z,95.30
2018-10-07T01:01:34.130Z,95.50
2018-10-07T01:04:03.549Z,95.60
2018-10-07T01:06:32.859Z,95.60
2018-10-07T01:09:02.079Z,95.70
2018-10-07T01:11:31.304Z,95.70
2018-10-07T01:14:00.608Z,95.70
2018-10-07T01:16:29.857Z,95.80
2018-10-07T01:18:59.088Z,95.70
2018-10-07T01:21:28.404Z,95.80
2018-10-07T01:23:57.683Z,96.00
2018-10-07T01:26:26.925Z,95.90
2018-10-07T01:28:56.143Z,96.00
2018-10-07T01:31:25.628Z,95.80
2018-10-07T01:33:54.908Z,95.80
2018-10-07T01:36:24.130Z,96.00
2018-10-07T01:38:53.408Z,96.20
2018-10-07T01:41:22.642Z,96.00
2018-10-07T01:43:51.884Z,95.80
2018-10-07T01:46:21.135Z,95.80
2018-10-07T01:48:50.389Z,96.20
2018-10-07T01:51:19.652Z,96.00
2018-10-07T01:53:49.288Z,96.00
2018-10-07T01:56:18.511Z,96.20
2018-10-07T01:58:47.760Z,96.20
2018-10-07T02:01:16.996Z,96.10
2018-10-07T02:03:46.254Z,96.20
2018-10-07T02:06:15.509Z,96.10
2018-10-07T02:08:44.744Z,95.80
2018-10-07T02:11:14.044Z,95.80
2018-10-07T02:13:43.307Z,95.70
2018-10-07T02:16:12.601Z,95.90
2018-10-07T02:18:41.849Z,95.80
2018-10-07T02:21:11.097Z,96.00
2018-10-07T02:23:40.361Z,96.20
2018-10-07T02:26:09.611Z,96.30
2018-10-07T02:28:39.079Z,96.60
2018-10-07T02:31:08.444Z,96.90
2018-10-07T02:33:37.731Z,97.60
2018-10-07T02:36:07.030Z,97.60
2018-10-07T02:38:36.907Z,97.20
2018-10-07T02:41:06.251Z,97.10
2018-10-07T02:43:35.592Z,97.30
2018-10-07T02:46:04.856Z,97.20
2018-10-07T02:48:34.151Z,97.10
2018-10-07T02:51:03.486Z,96.70
2018-10-07T02:53:32.861Z,96.70
2018-10-07T02:56:02.219Z,96.70
2018-10-07T02:58:31.530Z,96.80
2018-10-07T03:01:00.815Z,97.00
2018-10-07T03:03:30.090Z,96.80
2018-10-07T03:05:59.371Z,96.70
2018-10-07T03:08:28.633Z,96.70
2018-10-07T03:10:57.925Z,96.80
2018-10-07T03:13:27.200Z,96.80
2018-10-07T03:15:56.509Z,96.80
2018-10-07T03:18:25.830Z,97.00
2018-10-07T03:20:55.187Z,96.90
2018-10-07T03:23:24.460Z,96.70
2018-10-07T03:25:53.736Z,96.20
2018-10-07T03:28:23.035Z,96.30
2018-10-07T03:30:52.284Z,96.20
2018-10-07T03:33:21.551Z,96.50
2018-10-07T03:35:50.824Z,96.80
2018-10-07T03:38:20.093Z,96.80
2018-10-07T03:40:49.334Z,96.80
2018-10-07T03:43:18.657Z,96.80
2018-10-07T03:45:47.897Z,96.80
2018-10-07T03:48:17.192Z,96.80
2018-10-07T03:50:46.432Z,97.10
2018-10-07T03:53:15.665Z,97.10
2018-10-07T03:55:45.124Z,96.90
2018-10-07T03:58:14.388Z,97.00
2018-10-07T04:00:43.820Z,97.20
2018-10-07T04:03:13.057Z,97.20
2018-10-07T04:05:42.301Z,97.20
2018-10-07T04:08:11.558Z,97.20
2018-10-07T04:10:40.917Z,97.10
2018-10-07T04:13:10.159Z,96.90
2018-10-07T04:15:39.415Z,96.60
2018-10-07T04:18:08.696Z,96.60
2018-10-07T04:20:37.993Z,96.60
2018-10-07T04:23:07.539Z,96.60
2018-10-07T04:25:36.819Z,96.60
2018-10-07T04:28:06.076Z,96.70
2018-10-07T04:30:35.416Z,96.70
2018-10-07T04:33:04.660Z,96.70
2018-10-07T04:35:33.921Z,96.80
2018-10-07T04:38:03.172Z,96.90
2018-10-07T04:40:32.447Z,97.10
2018-10-07T04:43:01.740Z,97.20
2018-10-07T04:45:31.029Z,97.10
2018-10-07T04:48:00.310Z,97.20
2018-10-07T04:50:29.613Z,97.00
2018-10-07T04:52:58.891Z,97.00
2018-10-07T04:55:28.181Z,97.10
2018-10-07T04:57:57.448Z,97.10
2018-10-07T05:00:26.772Z,97.00
2018-10-07T05:02:56.003Z,97.00
2018-10-07T05:05:26.916Z,97.40
2018-10-07T05:07:56.227Z,97.10
2018-10-07T05:11:00.355Z,97.20
2018-10-07T05:13:42.081Z,97.10
2018-10-07T05:16:12.193Z,97.20
2018-10-07T05:18:41.498Z,97.30
2018-10-07T05:21:10.835Z,97.40
2018-10-07T05:23:40.084Z,97.40
2018-10-07T05:26:09.402Z,97.50
2018-10-07T05:28:38.744Z,97.60
2018-10-07T05:31:08.025Z,97.60
2018-10-07T05:33:37.347Z,97.60
2018-10-07T05:36:06.631Z,97.70
2018-10-07T05:38:35.925Z,97.70
2018-10-07T05:41:05.184Z,97.90
2018-10-07T05:43:34.445Z,98.00
2018-10-07T05:46:03.707Z,97.90
2018-10-07T05:48:33.000Z,98.00
2018-10-07T05:51:02.266Z,98.00
2018-10-07T05:53:31.560Z,98.00
2018-10-07T05:56:00.835Z,97.90
2018-10-07T05:58:30.520Z,97.90
2018-10-07T06:01:16.123Z,97.90
2018-10-07T06:03:59.128Z,98.00
2018-10-07T06:06:28.465Z,97.90
2018-10-07T06:08:57.730Z,97.70
2018-10-07T06:11:26.996Z,97.70
2018-10-07T06:13:56.336Z,97.70
2018-10-07T06:16:25.603Z,97.60
2018-10-07T06:18:54.871Z,97.70
2018-10-07T06:21:24.179Z,97.70
2018-10-07T06:23:53.487Z,97.60
2018-10-07T06:26:22.756Z,97.60
2018-10-07T06:28:52.031Z,97.60
2018-10-07T06:31:21.372Z,97.70
2018-10-07T06:33:50.818Z,97.80
2018-10-07T06:36:20.067Z,97.70
2018-10-07T06:38:49.348Z,97.80
2018-10-07T06:41:18.602Z,97.80
2018-10-07T06:43:47.819Z,97.90
2018-10-07T06:46:17.052Z,97.80
2018-10-07T06:48:46.288Z,97.80
2018-10-07T06:51:15.685Z,98.10
2018-10-07T06:53:44.932Z,97.00
2018-10-07T06:56:14.180Z,96.70
2018-10-07T06:58:43.419Z,96.50
2018-10-07T07:01:12.688Z,96.40
2018-10-07T07:03:41.954Z,96.70
2018-10-07T07:06:11.231Z,96.50
2018-10-07T07:08:40.522Z,96.60
2018-10-07T07:11:09.758Z,96.70
2018-10-07T07:13:39.021Z,96.80
2018-10-07T07:16:08.412Z,96.80
2018-10-07T07:18:37.765Z,96.50
2018-10-07T07:21:06.997Z,96.50
2018-10-07T07:23:36.235Z,96.50
2018-10-07T07:26:05.508Z,96.20
2018-10-07T07:28:34.740Z,96.10
2018-10-07T07:31:03.970Z,95.90
2018-10-07T07:33:33.228Z,95.90
2018-10-07T07:36:02.458Z,95.30
2018-10-07T07:38:31.688Z,94.80
2018-10-07T07:41:00.921Z,94.40
2018-10-07T07:43:30.170Z,94.30
2018-10-07T07:45:59.427Z,94.80
2018-10-07T07:48:28.658Z,94.80
2018-10-07T07:50:57.914Z,95.10
2018-10-07T07:53:27.159Z,95.40
2018-10-07T07:55:56.411Z,95.30
2018-10-07T07:58:25.689Z,95.40
2018-10-07T08:00:54.967Z,95.00
2018-10-07T08:03:24.327Z,95.10
2018-10-07T08:05:53.572Z,94.90
2018-10-07T08:08:22.808Z,95.10
2018-10-07T08:10:52.055Z,95.20
2018-10-07T08:13:21.327Z,95.40
2018-10-07T08:15:50.620Z,95.40
2018-10-07T08:18:19.859Z,95.60
2018-10-07T08:20:49.094Z,95.50
2018-10-07T08:23:18.412Z,95.60
2018-10-07T08:25:47.610Z,95.60
2018-10-07T08:28:16.847Z,95.90
2018-10-07T08:30:46.102Z,96.10
2018-10-07T08:33:15.350Z,96.30
2018-10-07T08:35:44.553Z,97.30
2018-10-07T08:38:13.797Z,97.60
2018-10-07T08:40:43.115Z,95.80
2018-10-07T08:43:12.378Z,92.70
2018-10-07T08:45:41.634Z,91.40
2018-10-07T08:48:10.880Z,90.50
2018-10-07T08:50:40.190Z,87.60
2018-10-07T08:53:09.540Z,83.90
2018-10-07T08:55:38.774Z,81.60
2018-10-07T08:58:08.073Z,77.90
2018-10-07T09:00:37.339Z,74.90
2018-10-07T09:03:06.649Z,73.60
2018-10-07T09:05:35.902Z,72.10
2018-10-07T09:08:05.136Z,71.90
2018-10-07T09:10:34.403Z,72.00
2018-10-07T09:13:03.662Z,66.30
2018-10-07T09:15:32.900Z,65.40
2018-10-07T09:18:02.167Z,65.40
2018-10-07T09:20:31.558Z,62.10
2018-10-07T09:23:00.792Z,62.20
2018-10-07T09:25:30.103Z,62.90
2018-10-07T09:27:59.999Z,59.60
2018-10-07T09:30:29.845Z,62.30
2018-10-07T09:32:59.237Z,60.80
2018-10-07T09:35:28.399Z,60.60
2018-10-07T09:37:57.850Z,59.30
2018-10-07T09:40:27.107Z,61.00
2018-10-07T09:42:56.401Z,58.90
2018-10-07T09:45:25.764Z,59.30
2018-10-07T09:47:55.212Z,57.60
2018-10-07T09:50:24.677Z,55.40
2018-10-07T09:52:53.988Z,55.90
2018-10-07T09:55:23.592Z,54.20
2018-10-07T09:57:53.125Z,54.70
2018-10-07T10:00:27.688Z,53.90
2018-10-07T10:02:56.989Z,54.80
2018-10-07T10:05:26.563Z,53.60
2018-10-07T10:07:56.750Z,55.40
2018-10-07T10:10:26.146Z,55.30
2018-10-07T10:12:55.438Z,57.80
2018-10-07T10:15:24.757Z,58.40
2018-10-07T10:18:04.552Z,59.50
2018-10-07T10:20:48.735Z,58.80
2018-10-07T10:23:30.898Z,59.50
2018-10-07T10:26:39.841Z,62.30
2018-10-07T10:29:18.640Z,63.30
2018-10-07T10:32:04.350Z,63.50
2018-10-07T10:37:20.310Z,65.60
2018-10-07T10:39:54.911Z,63.80
2018-10-07T10:43:39.112Z,65.80
2018-10-07T10:46:19.267Z,60.30
2018-10-07T10:49:20.181Z,59.70
2018-10-07T10:52:09.684Z,58.60
2018-10-07T10:54:46.409Z,55.90
2018-10-07T10:57:52.118Z,53.70
2018-10-07T11:00:30.237Z,51.00
2018-10-07T11:06:16.556Z,51.50
2018-10-07T11:08:59.855Z,50.90
2018-10-07T11:11:42.642Z,49.20
2018-10-07T11:16:30.678Z,50.20
2018-10-07T11:19:19.213Z,50.30
2018-10-07T11:22:02.164Z,46.30
2018-10-07T11:24:48.175Z,46.70
2018-10-07T11:27:35.973Z,47.60
2018-10-07T11:30:25.160Z,47.70
2018-10-07T11:33:11.307Z,49.30
2018-10-07T11:35:56.879Z,48.80
2018-10-07T11:40:45.545Z,47.60
2018-10-07T11:43:23.401Z,47.00
2018-10-07T11:46:07.197Z,47.40
2018-10-07T11:49:15.013Z,45.00
2018-10-07T11:51:56.945Z,46.10
2018-10-07T11:55:05.493Z,45.10
2018-10-07T11:57:34.784Z,46.50
2018-10-07T12:00:04.150Z,45.90
2018-10-07T12:02:33.476Z,47.30
2018-10-07T12:05:02.743Z,47.50
2018-10-07T12:07:32.990Z,46.60
2018-10-07T12:10:02.285Z,47.40
2018-10-07T12:12:31.529Z,46.70
2018-10-07T12:15:00.825Z,48.20
2018-10-07T12:17:30.172Z,45.90
2018-10-07T12:19:59.494Z,46.90
2018-10-07T12:22:28.750Z,45.20
2018-10-07T12:24:58.011Z,45.50
2018-10-07T12:27:27.379Z,45.10
2018-10-07T12:29:56.722Z,44.20
2018-10-07T12:32:26.043Z,44.80
2018-10-07T12:34:55.296Z,44.60
2018-10-07T12:37:24.588Z,45.70
2018-10-07T12:39:53.925Z,44.90
2018-10-07T12:42:23.256Z,45.00
2018-10-07T12:44:55.086Z,46.20
2018-10-07T12:47:24.412Z,46.00
2018-10-07T12:49:53.768Z,45.40
2018-10-07T12:52:23.024Z,46.40
2018-10-07T12:54:52.355Z,46.30
2018-10-07T12:57:21.743Z,45.90
2018-10-07T12:59:51.140Z,47.00
2018-10-07T13:02:20.401Z,44.40
2018-10-07T13:04:49.942Z,44.50
2018-10-07T13:07:19.315Z,45.00
2018-10-07T13:09:48.597Z,44.60
2018-10-07T13:12:17.897Z,44.10
2018-10-07T13:14:47.535Z,43.50
2018-10-07T13:17:16.799Z,43.30
2018-10-07T13:19:46.100Z,43.10
2018-10-07T13:22:15.540Z,43.40
2018-10-07T13:24:44.853Z,43.20
2018-10-07T13:27:14.145Z,43.50
2018-10-07T13:29:43.446Z,45.10
2018-10-07T13:32:12.713Z,44.80
2018-10-07T13:34:42.039Z,44.20
2018-10-07T13:37:11.319Z,45.20
2018-10-07T13:39:40.640Z,44.60
2018-10-07T13:42:09.931Z,45.40
2018-10-07T13:44:39.195Z,44.10
2018-10-07T13:47:08.540Z,44.50
2018-10-07T13:49:37.827Z,44.80
2018-10-07T13:52:07.161Z,43.40
2018-10-07T13:54:36.486Z,42.80
2018-10-07T13:57:05.742Z,42.10
2018-10-07T13:59:35.836Z,42.00
2018-10-07T14:02:05.163Z,43.50
2018-10-07T14:04:34.488Z,43.80
2018-10-07T14:07:03.845Z,44.60
2018-10-07T14:09:33.160Z,44.40
2018-10-07T14:12:02.494Z,45.50
2018-10-07T14:14:31.807Z,45.10
2018-10-07T14:17:01.141Z,47.00
2018-10-07T14:19:30.564Z,45.90
2018-10-07T14:21:59.925Z,45.80
2018-10-07T14:24:29.236Z,45.90
2018-10-07T14:26:58.526Z,45.10
2018-10-07T14:29:27.775Z,45.70
2018-10-07T14:31:57.040Z,45.90
2018-10-07T14:34:26.304Z,46.80
2018-10-07T14:36:55.578Z,47.80
2018-10-07T14:39:24.847Z,48.10
2018-10-07T14:41:54.071Z,49.60
2018-10-07T14:44:23.330Z,50.80
2018-10-07T14:46:52.572Z,51.90
2018-10-07T14:49:21.929Z,53.40
2018-10-07T14:51:51.206Z,54.40
2018-10-07T14:54:20.535Z,55.60
2018-10-07T14:56:50.007Z,55.70
2018-10-07T14:59:19.327Z,56.60
2018-10-07T15:01:48.765Z,56.90
2018-10-07T15:04:18.021Z,58.20
2018-10-07T15:06:47.496Z,58.90
2018-10-07T15:09:16.820Z,59.90
2018-10-07T15:11:46.083Z,60.60
2018-10-07T15:14:15.351Z,61.40
2018-10-07T15:16:44.664Z,61.30
2018-10-07T15:19:13.892Z,62.30
2018-10-07T15:21:43.130Z,62.30
2018-10-07T15:24:12.383Z,63.20
2018-10-07T15:26:41.714Z,63.60
2018-10-07T15:29:11.043Z,62.70
2018-10-07T15:31:40.261Z,62.80
2018-10-07T15:34:09.479Z,63.30
2018-10-07T15:36:38.739Z,63.50
2018-10-07T15:39:08.697Z,62.30
2018-10-07T15:41:37.989Z,61.50
2018-10-07T15:44:07.316Z,61.20
2018-10-07T15:46:36.555Z,61.80
2018-10-07T15:49:05.797Z,61.80
2018-10-07T15:51:35.302Z,63.50
2018-10-07T15:54:04.717Z,64.10
2018-10-07T15:56:34.009Z,64.90
2018-10-07T15:59:03.271Z,65.30
2018-10-07T16:01:32.600Z,66.10
2018-10-07T16:04:01.855Z,67.00
2018-10-07T16:06:31.178Z,68.10
2018-10-07T16:09:00.471Z,68.60
2018-10-07T16:11:29.671Z,69.20
2018-10-07T16:13:58.985Z,68.90
2018-10-07T16:16:28.221Z,68.90
2018-10-07T16:18:57.570Z,68.00
2018-10-07T16:21:26.901Z,68.80
2018-10-07T16:23:56.410Z,69.00
2018-10-07T16:26:25.819Z,70.50
2018-10-07T16:28:54.937Z,71.70
2018-10-07T16:31:24.152Z,72.20
2018-10-07T16:33:53.430Z,72.90
2018-10-07T16:36:22.711Z,74.00
2018-10-07T16:38:52.074Z,74.80
2018-10-07T16:41:21.295Z,75.40
2018-10-07T16:43:50.546Z,76.50
2018-10-07T16:46:19.781Z,76.70
2018-10-07T16:48:49.016Z,77.40
2018-10-07T16:51:18.244Z,78.10
2018-10-07T16:53:47.539Z,79.20
2018-10-07T16:56:16.778Z,79.70
2018-10-07T16:58:46.016Z,80.20
2018-10-07T17:01:15.296Z,81.00
2018-10-07T17:03:44.535Z,81.20
2018-10-07T17:06:13.788Z,81.30
2018-10-07T17:08:43.052Z,81.70
2018-10-07T17:11:12.291Z,82.90
2018-10-07T17:13:41.572Z,83.10
2018-10-07T17:16:10.810Z,82.00
2018-10-07T17:18:40.069Z,82.30
2018-10-07T17:21:09.424Z,82.30
2018-10-07T17:23:38.571Z,82.50
2018-10-07T17:26:07.973Z,82.90
2018-10-07T17:28:37.220Z,83.50
2018-10-07T17:31:06.478Z,83.80
2018-10-07T17:33:35.804Z,84.40
2018-10-07T17:36:05.084Z,84.50
2018-10-07T17:38:34.338Z,84.70
2018-10-07T17:41:03.584Z,85.40
2018-10-07T17:43:32.832Z,86.00
2018-10-07T17:46:02.132Z,87.10
2018-10-07T17:48:31.528Z,88.50
2018-10-07T17:51:00.601Z,89.20
2018-10-07T17:53:29.823Z,89.20
2018-10-07T17:55:59.056Z,88.70
2018-10-07T17:58:28.279Z,88.20
2018-10-07T18:00:57.515Z,89.40
2018-10-07T18:03:26.759Z,90.00
2018-10-07T18:05:56.025Z,90.10
2018-10-07T18:08:25.282Z,90.20
2018-10-07T18:10:54.517Z,90.40
2018-10-07T18:13:23.737Z,90.40
2018-10-07T18:15:53.016Z,91.00
2018-10-07T18:18:22.347Z,90.80
2018-10-07T18:20:51.630Z,91.00
2018-10-07T18:23:20.919Z,91.50
2018-10-07T18:25:50.171Z,91.60
2018-10-07T18:28:19.399Z,91.70
2018-10-07T18:30:48.630Z,91.70
2018-10-07T18:33:17.884Z,91.90
2018-10-07T18:35:47.110Z,92.00
2018-10-07T18:38:16.401Z,91.80
2018-10-07T18:40:45.641Z,91.70
2018-10-07T18:43:14.944Z,91.90
2018-10-07T18:45:44.153Z,92.00
2018-10-07T18:48:13.393Z,92.20
2018-10-07T18:50:42.643Z,92.00
2018-10-07T18:53:11.891Z,92.10
2018-10-07T18:55:41.140Z,92.70
2018-10-07T18:58:10.403Z,92.80
2018-10-07T19:00:39.681Z,92.70
2018-10-07T19:03:08.924Z,92.60
2018-10-07T19:05:38.267Z,92.80
2018-10-07T19:08:07.584Z,93.00
2018-10-07T19:10:36.859Z,93.50
2018-10-07T19:13:06.140Z,93.00
2018-10-07T19:15:35.446Z,93.40
2018-10-07T19:18:04.748Z,93.30
2018-10-07T19:20:34.033Z,93.40
2018-10-07T19:23:03.317Z,93.10
2018-10-07T19:25:32.588Z,92.90
2018-10-07T19:28:01.820Z,92.90
2018-10-07T19:30:31.094Z,93.20
2018-10-07T19:33:00.339Z,93.20
2018-10-07T19:35:29.617Z,92.50
2018-10-07T19:37:58.863Z,92.60
2018-10-07T19:40:28.119Z,92.10
2018-10-07T19:42:58.432Z,92.30
2018-10-07T19:45:27.787Z,93.70
2018-10-07T19:47:56.931Z,93.60
2018-10-07T19:50:26.184Z,92.80
2018-10-07T19:52:55.527Z,92.90
2018-10-07T19:55:24.823Z,93.10
2018-10-07T19:57:54.091Z,93.20
2018-10-07T20:00:23.366Z,93.70
2018-10-07T20:02:52.624Z,93.50
2018-10-07T20:05:21.922Z,93.40
2018-10-07T20:07:51.686Z,93.50
2018-10-07T20:10:21.021Z,93.70
2018-10-07T20:12:50.272Z,93.80
2018-10-07T20:15:19.533Z,94.30
2018-10-07T20:17:48.808Z,94.70
2018-10-07T20:20:18.093Z,95.90
2018-10-07T20:22:47.334Z,96.20
2018-10-07T20:25:16.727Z,95.60
2018-10-07T20:27:46.065Z,95.60
2018-10-07T20:30:15.337Z,96.20
2018-10-07T20:32:44.598Z,96.00
2018-10-07T20:35:13.883Z,96.30
2018-10-07T20:37:43.187Z,96.40
2018-10-07T20:40:19.023Z,96.30
2018-10-07T20:42:48.240Z,96.30
2018-10-07T20:45:17.512Z,96.00
2018-10-07T20:47:46.777Z,95.80
2018-10-07T20:50:16.053Z,95.60
2018-10-07T20:52:45.519Z,95.70
2018-10-07T20:55:14.816Z,95.60
2018-10-07T20:57:44.287Z,95.60
2018-10-07T21:00:13.571Z,95.60
2018-10-07T21:02:42.908Z,95.70
2018-10-07T21:05:13.014Z,95.40
2018-10-07T21:07:43.013Z,95.40
2018-10-07T21:10:12.403Z,95.50
2018-10-07T21:12:41.725Z,95.70
2018-10-07T21:15:11.025Z,95.80
2018-10-07T21:17:40.296Z,95.70
2018-10-07T21:20:09.574Z,95.40
2018-10-07T21:22:38.940Z,95.50
2018-10-07T21:25:08.286Z,95.30
2018-10-07T21:27:37.658Z,95.20
2018-10-07T21:30:07.164Z,95.10
2018-10-07T21:32:36.549Z,95.10
2018-10-07T21:35:05.834Z,94.90
2018-10-07T21:37:35.129Z,95.00
2018-10-07T21:40:04.375Z,95.00
2018-10-07T21:42:33.701Z,94.90
2018-10-07T21:45:02.935Z,94.70
2018-10-07T21:47:32.218Z,94.80
2018-10-07T21:50:01.492Z,95.00
2018-10-07T21:52:30.913Z,94.90
2018-10-07T21:55:00.085Z,94.80
2018-10-07T21:57:29.484Z,95.00
2018-10-07T21:59:59.005Z,95.10
2018-10-07T22:02:28.274Z,94.90
2018-10-07T22:04:57.528Z,94.90
2018-10-07T22:07:26.788Z,95.00
2018-10-07T22:09:56.033Z,95.00
2018-10-07T22:12:25.283Z,94.90
2018-10-07T22:14:54.535Z,95.10
2018-10-07T22:17:23.766Z,95.00
2018-10-07T22:19:53.081Z,95.10
2018-10-07T22:22:22.439Z,95.70
2018-10-07T22:24:51.733Z,95.70
2018-10-07T22:27:20.995Z,95.20
2018-10-07T22:29:50.241Z,95.10
2018-10-07T22:32:19.620Z,95.30
2018-10-07T22:34:48.898Z,95.40
2018-10-07T22:37:18.147Z,95.40
2018-10-07T22:39:47.384Z,95.40
2018-10-07T22:42:16.656Z,95.60
2018-10-07T22:44:45.937Z,95.90
2018-10-07T22:47:15.196Z,96.00
2018-10-07T22:49:44.508Z,96.00
2018-10-07T22:52:13.777Z,95.90
2018-10-07T22:54:43.049Z,95.50
2018-10-07T22:57:12.289Z,95.60
2018-10-07T22:59:41.557Z,95.70
2018-10-07T23:02:10.828Z,96.00
2018-10-07T23:04:40.431Z,96.10
2018-10-07T23:07:09.728Z,96.10
2018-10-07T23:09:38.963Z,96.30
2018-10-07T23:12:08.213Z,96.30
2018-10-07T23:14:37.460Z,96.70
2018-10-07T23:17:06.734Z,96.20
2018-10-07T23:19:35.975Z,96.00
2018-10-07T23:22:05.209Z,95.70
2018-10-07T23:24:34.442Z,95.40
2018-10-07T23:27:03.724Z,95.80
2018-10-07T23:29:32.968Z,95.90
2018-10-07T23:32:02.219Z,95.90
2018-10-07T23:34:31.462Z,96.10
2018-10-07T23:37:00.752Z,96.20
2018-10-07T23:39:30.017Z,96.10
2018-10-07T23:41:59.298Z,96.60
2018-10-07T23:44:28.572Z,96.40
2018-10-07T23:46:57.897Z,96.60
2018-10-07T23:49:27.172Z,96.50
2018-10-07T23:51:56.518Z,96.60
2018-10-07T23:54:25.737Z,96.60
2018-10-07T23:56:55.133Z,96.80
2018-10-07T23:59:24.417Z,96.30
